createdAt,value
2022-12-04T00:02:13.421Z,13.20
2022-12-04T00:04:44.394Z,13.18
2022-12-04T00:07:15.238Z,12.27
2022-12-04T00:09:46.241Z,13.32
2022-12-04T00:12:20.073Z,12.30
2022-12-04T00:15:23.866Z,12.45
2022-12-04T00:17:43.416Z,10.95
2022-12-04T00:20:14.984Z,12.75
2022-12-04T00:22:45.818Z,13.48
2022-12-04T00:25:17.641Z,13.27
2022-12-04T00:27:51.170Z,12.27
2022-12-04T00:30:22.182Z,11.35
2022-12-04T00:32:53.991Z,13.65
2022-12-04T00:35:25.174Z,11.68
2022-12-04T00:37:56.518Z,11.73
2022-12-04T00:40:27.309Z,11.93
2022-12-04T00:43:00.780Z,11.88
2022-12-04T00:45:31.767Z,13.00
2022-12-04T00:48:03.183Z,11.05
2022-12-04T00:50:34.072Z,11.85
2022-12-04T00:53:05.240Z,11.65
2022-12-04T00:55:36.388Z,12.00
2022-12-04T00:58:10.770Z,12.98
2022-12-04T01:00:44.010Z,13.23
2022-12-04T01:03:15.198Z,12.68
2022-12-04T01:05:48.223Z,12.63
2022-12-04T01:08:20.389Z,12.02
2022-12-04T01:10:51.405Z,12.55
2022-12-04T01:13:26.323Z,12.95
2022-12-04T01:15:57.954Z,12.05
2022-12-04T01:18:29.295Z,12.35
2022-12-04T01:21:00.594Z,13.13
2022-12-04T01:23:31.538Z,11.90
2022-12-04T01:26:03.034Z,12.57
2022-12-04T01:28:36.752Z,11.90
2022-12-04T01:31:11.391Z,12.13
2022-12-04T01:33:43.316Z,13.13
2022-12-04T01:36:17.834Z,12.13
2022-12-04T01:38:49.302Z,11.68
2022-12-04T01:41:24.244Z,12.60
2022-12-04T01:44:21.725Z,12.38
2022-12-04T01:46:55.894Z,12.30
2022-12-04T01:49:32.211Z,12.70
2022-12-04T01:52:08.230Z,12.93
2022-12-04T01:54:43.815Z,11.47
2022-12-04T01:57:17.802Z,12.55
2022-12-04T01:59:55.509Z,11.68
2022-12-04T02:02:31.017Z,11.15
2022-12-04T02:05:03.105Z,11.82
2022-12-04T02:07:35.237Z,11.27
2022-12-04T02:10:09.003Z,11.25
2022-12-04T02:12:46.860Z,11.02
2022-12-04T02:15:26.343Z,11.50
2022-12-04T02:18:10.382Z,11.75
2022-12-04T02:20:45.997Z,11.50
2022-12-04T02:23:49.583Z,11.50
2022-12-04T02:26:34.472Z,11.88
2022-12-04T02:29:12.795Z,11.75
2022-12-04T02:31:47.343Z,12.35
2022-12-04T02:34:25.425Z,11.27
2022-12-04T02:37:01.130Z,11.95
2022-12-04T02:39:39.650Z,12.52
2022-12-04T02:42:17.297Z,13.18
2022-12-04T02:44:55.994Z,11.48
2022-12-04T02:47:28.614Z,12.65
2022-12-04T02:50:02.717Z,11.80
2022-12-04T02:52:37.920Z,12.38
2022-12-04T02:55:15.169Z,12.68
2022-12-04T02:57:51.812Z,13.10
2022-12-04T03:00:25.975Z,11.98
2022-12-04T03:03:02.839Z,11.68
2022-12-04T03:08:14.389Z,11.20
2022-12-04T03:10:52.921Z,12.60
2022-12-04T03:13:27.501Z,12.13
2022-12-04T03:16:06.761Z,12.38
2022-12-04T03:18:43.212Z,13.93
2022-12-04T03:21:18.761Z,12.43
2022-12-04T03:23:53.627Z,12.10
2022-12-04T03:26:30.719Z,12.00
2022-12-04T03:29:06.775Z,13.05
2022-12-04T03:31:47.404Z,13.43
2022-12-04T03:34:25.643Z,14.07
2022-12-04T03:37:00.549Z,12.73
2022-12-04T03:39:39.747Z,13.63
2022-12-04T03:42:15.937Z,12.57
2022-12-04T03:44:50.533Z,13.82
2022-12-04T03:47:29.773Z,11.88
2022-12-04T03:50:05.687Z,12.70
2022-12-04T03:52:41.052Z,11.43
2022-12-04T03:55:18.682Z,11.70
2022-12-04T03:57:51.990Z,12.00
2022-12-04T04:00:25.490Z,11.80
2022-12-04T04:03:04.045Z,11.82
2022-12-04T04:05:37.334Z,12.32
2022-12-04T04:08:23.392Z,12.63
2022-12-04T04:10:57.163Z,13.95
2022-12-04T04:13:46.208Z,12.25
2022-12-04T04:16:32.784Z,12.45
2022-12-04T04:19:19.963Z,12.03
2022-12-04T04:22:06.402Z,12.57
2022-12-04T04:24:42.857Z,12.30
2022-12-04T04:27:14.050Z,12.73
2022-12-04T04:29:52.320Z,12.55
2022-12-04T04:32:32.088Z,12.63
2022-12-04T04:35:14.296Z,12.30
2022-12-04T04:37:55.638Z,12.27
2022-12-04T04:40:32.868Z,12.00
2022-12-04T04:43:08.526Z,12.65
2022-12-04T04:45:42.969Z,12.27
2022-12-04T04:48:17.371Z,11.52
2022-12-04T04:50:51.915Z,12.27
2022-12-04T04:53:28.753Z,11.30
2022-12-04T04:58:31.475Z,11.52
2022-12-04T05:01:04.545Z,11.82
2022-12-04T05:03:36.148Z,12.25
2022-12-04T05:06:10.013Z,12.68
2022-12-04T05:08:41.436Z,12.55
2022-12-04T05:11:16.604Z,13.02
2022-12-04T05:13:48.045Z,12.38
2022-12-04T05:16:20.868Z,13.00
2022-12-04T05:19:05.043Z,12.30
2022-12-04T05:21:38.769Z,12.90
2022-12-04T05:24:10.428Z,13.50
2022-12-04T05:26:41.279Z,13.80
2022-12-04T05:29:12.579Z,13.18
2022-12-04T05:31:43.471Z,13.73
2022-12-04T05:34:14.788Z,14.25
2022-12-04T05:36:48.220Z,13.45
2022-12-04T05:39:19.661Z,12.82
2022-12-04T05:41:51.120Z,13.82
2022-12-04T05:44:22.155Z,13.05
2022-12-04T05:46:53.285Z,14.20
2022-12-04T05:49:24.287Z,14.18
2022-12-04T05:51:58.106Z,13.80
2022-12-04T05:54:29.736Z,13.98
2022-12-04T05:57:00.624Z,14.88
2022-12-04T05:59:31.993Z,14.50
2022-12-04T06:02:02.961Z,15.50
2022-12-04T06:04:34.427Z,14.10
2022-12-04T06:07:08.214Z,13.68
2022-12-04T06:09:39.390Z,15.57
2022-12-04T06:12:10.980Z,15.20
2022-12-04T06:14:42.216Z,15.25
2022-12-04T06:17:13.199Z,15.18
2022-12-04T06:19:44.010Z,14.20
2022-12-04T06:22:17.509Z,13.93
2022-12-04T06:24:49.296Z,14.85
2022-12-04T06:27:28.455Z,15.80
2022-12-04T06:30:00.321Z,14.27
2022-12-04T06:32:31.502Z,14.82
2022-12-04T06:35:02.786Z,15.20
2022-12-04T06:37:37.557Z,15.02
2022-12-04T06:40:10.170Z,15.73
2022-12-04T06:42:41.131Z,14.52
2022-12-04T06:45:14.139Z,13.98
2022-12-04T06:47:45.045Z,15.52
2022-12-04T06:50:16.370Z,15.45
2022-12-04T06:52:50.053Z,15.98
2022-12-04T06:55:21.274Z,16.58
2022-12-04T06:57:52.305Z,15.98
2022-12-04T07:00:23.859Z,16.33
2022-12-04T07:02:55.022Z,17.20
2022-12-04T07:05:26.400Z,16.95
2022-12-04T07:08:00.604Z,16.25
2022-12-04T07:10:31.886Z,16.55
2022-12-04T07:13:03.206Z,15.40
2022-12-04T07:15:35.828Z,15.80
2022-12-04T07:18:07.721Z,15.38
2022-12-04T07:20:42.604Z,15.20
2022-12-04T07:23:16.861Z,15.90
2022-12-04T07:25:47.968Z,15.32
2022-12-04T07:28:18.904Z,16.58
2022-12-04T07:30:50.419Z,16.02
2022-12-04T07:33:21.458Z,17.20
2022-12-04T07:35:59.183Z,15.45
2022-12-04T07:38:35.156Z,16.45
2022-12-04T07:41:07.872Z,15.65
2022-12-04T07:43:38.754Z,16.35
2022-12-04T07:46:11.809Z,17.42
2022-12-04T07:48:43.077Z,16.38
2022-12-04T07:51:17.519Z,15.75
2022-12-04T07:53:53.813Z,16.58
2022-12-04T07:56:25.284Z,16.85
2022-12-04T07:58:56.170Z,15.55
2022-12-04T08:01:27.825Z,15.10
2022-12-04T08:04:01.278Z,15.93
2022-12-04T08:06:33.149Z,15.88
2022-12-04T08:09:10.294Z,16.08
2022-12-04T08:11:43.026Z,16.17
2022-12-04T08:14:15.929Z,16.95
2022-12-04T08:16:52.462Z,15.85
2022-12-04T08:19:24.000Z,16.45
2022-12-04T08:21:58.316Z,17.35
2022-12-04T08:24:33.521Z,17.15
2022-12-04T08:27:04.640Z,18.63
2022-12-04T08:29:35.759Z,21.10
2022-12-04T08:32:07.522Z,21.10
2022-12-04T08:34:38.760Z,18.95
2022-12-04T08:37:10.007Z,20.25
2022-12-04T08:39:44.090Z,18.10
2022-12-04T08:42:15.058Z,18.08
2022-12-04T08:44:46.472Z,17.67
2022-12-04T08:47:17.860Z,18.00
2022-12-04T08:49:48.726Z,15.80
2022-12-04T08:52:20.057Z,16.27
2022-12-04T08:54:54.430Z,17.45
2022-12-04T08:57:26.183Z,17.23
2022-12-04T08:59:57.429Z,19.67
2022-12-04T09:02:28.635Z,21.50
2022-12-04T09:04:59.836Z,17.25
2022-12-04T09:07:31.728Z,17.70
2022-12-04T09:10:05.412Z,19.17
2022-12-04T09:12:36.491Z,17.95
2022-12-04T09:15:08.433Z,18.38
2022-12-04T09:17:39.957Z,22.38
2022-12-04T09:20:12.714Z,22.30
2022-12-04T09:23:02.882Z,23.00
2022-12-04T09:25:39.007Z,19.55
2022-12-04T09:28:09.764Z,19.55
2022-12-04T09:30:40.650Z,21.42
2022-12-04T09:33:11.531Z,20.38
2022-12-04T09:35:43.680Z,19.77
2022-12-04T09:38:14.934Z,22.65
2022-12-04T09:40:55.675Z,22.45
2022-12-04T09:43:34.625Z,18.42
2022-12-04T09:46:13.153Z,19.05
2022-12-04T09:48:46.866Z,18.20
2022-12-04T09:51:21.568Z,16.90
2022-12-04T09:53:58.349Z,18.63
2022-12-04T09:56:34.380Z,17.27
2022-12-04T09:59:12.156Z,18.10
2022-12-04T10:01:48.415Z,18.60
2022-12-04T10:04:20.672Z,20.07
2022-12-04T10:06:58.630Z,19.05
2022-12-04T10:09:38.954Z,19.25
2022-12-04T10:12:24.003Z,19.77
2022-12-04T10:15:23.372Z,18.27
2022-12-04T10:18:20.283Z,19.23
2022-12-04T10:21:04.429Z,18.95
2022-12-04T10:23:47.466Z,18.55
2022-12-04T10:26:23.380Z,17.98
2022-12-04T10:29:01.657Z,17.50
2022-12-04T10:31:33.974Z,19.63
2022-12-04T10:34:10.846Z,16.83
2022-12-04T10:36:45.144Z,16.52
2022-12-04T10:39:24.622Z,15.90
2022-12-04T10:42:00.802Z,17.67
2022-12-04T10:44:34.370Z,17.38
2022-12-04T10:47:07.047Z,17.00
2022-12-04T10:49:40.846Z,18.10
2022-12-04T10:52:15.014Z,18.17
2022-12-04T10:54:52.110Z,16.15
2022-12-04T10:57:23.300Z,16.40
2022-12-04T11:00:00.451Z,17.20
2022-12-04T11:02:34.223Z,17.70
2022-12-04T11:05:07.798Z,19.02
2022-12-04T11:07:46.522Z,18.25
2022-12-04T11:10:26.020Z,26.05
2022-12-04T11:12:58.440Z,17.23
2022-12-04T11:15:32.983Z,17.17
2022-12-04T11:18:12.464Z,16.08
2022-12-04T11:20:53.139Z,15.98
2022-12-04T11:23:25.231Z,21.55
2022-12-04T11:26:05.152Z,18.58
2022-12-04T11:28:42.053Z,15.40
2022-12-04T11:33:54.363Z,12.13
2022-12-04T11:36:27.999Z,13.63
2022-12-04T11:39:11.566Z,13.70
2022-12-04T11:41:43.449Z,13.60
2022-12-04T11:44:28.238Z,12.90
2022-12-04T11:47:05.166Z,13.77
2022-12-04T11:49:43.568Z,17.30
2022-12-04T11:52:26.335Z,14.05
2022-12-04T11:55:04.488Z,12.52
2022-12-04T11:57:43.841Z,13.02
2022-12-04T12:00:18.244Z,12.43
2022-12-04T12:03:13.877Z,12.30
2022-12-04T12:06:11.008Z,13.48
2022-12-04T12:09:02.039Z,14.50
2022-12-04T12:11:39.371Z,12.55
2022-12-04T12:14:15.477Z,13.60
2022-12-04T12:16:59.580Z,12.70
2022-12-04T12:20:15.822Z,15.35
2022-12-04T12:23:02.372Z,14.73
2022-12-04T12:25:43.391Z,14.33
2022-12-04T12:28:28.434Z,13.75
2022-12-04T12:31:14.895Z,18.42
2022-12-04T12:33:52.520Z,13.17
2022-12-04T12:36:29.655Z,11.70
2022-12-04T12:39:04.837Z,11.68
2022-12-04T12:41:42.645Z,11.27
2022-12-04T12:44:19.656Z,11.77
2022-12-04T12:46:54.380Z,12.88
2022-12-04T12:49:30.144Z,11.13
2022-12-04T12:52:08.370Z,11.97
2022-12-04T12:54:47.742Z,14.88
2022-12-04T12:57:24.446Z,13.07
2022-12-04T12:59:59.974Z,13.73
2022-12-04T13:02:33.790Z,13.50
2022-12-04T13:05:10.695Z,13.57
2022-12-04T13:10:24.476Z,22.38
2022-12-04T13:13:00.379Z,20.02
2022-12-04T13:15:38.917Z,11.68
2022-12-04T13:18:12.484Z,10.18
2022-12-04T13:20:53.256Z,10.15
2022-12-04T13:23:41.035Z,10.38
2022-12-04T13:26:20.403Z,10.65
2022-12-04T13:29:00.755Z,11.15
2022-12-04T13:31:39.852Z,12.43
2022-12-04T13:34:44.604Z,11.50
2022-12-04T13:37:50.573Z,10.57
2022-12-04T13:40:44.089Z,13.25
2022-12-04T13:43:24.223Z,12.02
2022-12-04T13:45:58.509Z,11.23
2022-12-04T13:48:39.919Z,15.20
2022-12-04T13:51:37.944Z,18.55
2022-12-04T13:54:25.991Z,18.13
2022-12-04T13:57:01.373Z,14.70
2022-12-04T13:59:42.087Z,13.50
2022-12-04T14:02:32.713Z,17.55
2022-12-04T14:05:05.888Z,12.38
2022-12-04T14:07:39.201Z,32.83
2022-12-04T14:10:29.483Z,17.92
2022-12-04T14:13:07.877Z,14.52
2022-12-04T14:15:40.424Z,14.88
2022-12-04T14:18:27.279Z,15.55
2022-12-04T14:21:05.109Z,14.07
2022-12-04T14:23:41.826Z,12.02
2022-12-04T14:26:37.260Z,12.50
2022-12-04T14:29:48.532Z,14.23
2022-12-04T14:32:24.104Z,14.65
2022-12-04T14:34:56.610Z,14.50
2022-12-04T14:37:32.362Z,16.15
2022-12-04T14:40:07.724Z,14.90
2022-12-04T14:42:41.282Z,15.60
2022-12-04T14:45:29.469Z,15.30
2022-12-04T14:48:22.070Z,15.00
2022-12-04T14:51:01.029Z,15.00
2022-12-04T14:53:41.415Z,14.90
2022-12-04T14:56:31.659Z,13.98
2022-12-04T14:59:08.199Z,14.43
2022-12-04T15:01:41.797Z,15.63
2022-12-04T15:04:19.292Z,15.95
2022-12-04T15:06:58.315Z,15.40
2022-12-04T15:09:56.133Z,25.63
2022-12-04T15:12:38.290Z,40.35
2022-12-04T15:15:17.726Z,18.48
2022-12-04T15:17:59.457Z,14.65
2022-12-04T15:20:36.092Z,15.50
2022-12-04T15:23:09.800Z,14.43
2022-12-04T15:25:50.809Z,16.13
2022-12-04T15:28:24.686Z,15.73
2022-12-04T15:30:58.004Z,15.07
2022-12-04T15:33:33.656Z,14.88
2022-12-04T15:36:09.446Z,14.57
2022-12-04T15:38:40.891Z,14.98
2022-12-04T15:41:33.190Z,14.73
2022-12-04T15:44:05.089Z,16.83
2022-12-04T15:46:39.209Z,16.65
2022-12-04T15:49:21.883Z,15.85
2022-12-04T15:51:52.907Z,16.33
2022-12-04T15:54:27.426Z,13.32
2022-12-04T15:57:03.674Z,16.25
2022-12-04T15:59:36.187Z,15.70
2022-12-04T16:02:12.151Z,14.88
2022-12-04T16:04:46.088Z,16.73
2022-12-04T16:07:26.480Z,14.25
2022-12-04T16:10:03.543Z,14.30
2022-12-04T16:12:35.805Z,13.95
2022-12-04T16:15:08.429Z,14.70
2022-12-04T16:17:39.321Z,16.38
2022-12-04T16:20:15.750Z,13.63
2022-12-04T16:22:47.611Z,14.20
2022-12-04T16:25:19.321Z,14.15
2022-12-04T16:27:50.518Z,12.63
2022-12-04T16:30:21.872Z,14.27
2022-12-04T16:32:53.476Z,13.88
2022-12-04T16:35:27.528Z,12.93
2022-12-04T16:37:58.896Z,13.10
2022-12-04T16:40:30.511Z,14.15
2022-12-04T16:43:01.588Z,16.05
2022-12-04T16:45:36.713Z,14.02
2022-12-04T16:48:09.447Z,15.20
2022-12-04T16:50:43.606Z,13.75
2022-12-04T16:53:20.065Z,17.70
2022-12-04T16:55:53.934Z,17.50
2022-12-04T16:58:26.873Z,15.35
2022-12-04T17:01:00.785Z,17.90
2022-12-04T17:03:34.208Z,15.82
2022-12-04T17:06:11.903Z,16.77
2022-12-04T17:08:42.781Z,19.67
2022-12-04T17:11:16.658Z,19.83
2022-12-04T17:13:48.468Z,30.05
2022-12-04T17:16:20.251Z,20.02
2022-12-04T17:18:52.118Z,15.57
2022-12-04T17:21:26.269Z,20.13
2022-12-04T17:23:57.811Z,16.83
2022-12-04T17:26:29.240Z,18.17
2022-12-04T17:29:01.711Z,20.27
2022-12-04T17:31:33.872Z,19.30
2022-12-04T17:34:05.522Z,16.13
2022-12-04T17:36:40.169Z,16.15
2022-12-04T17:39:12.218Z,17.38
2022-12-04T17:41:43.534Z,15.45
2022-12-04T17:44:14.910Z,16.00
2022-12-04T17:46:46.489Z,16.42
2022-12-04T17:49:17.872Z,15.63
2022-12-04T17:51:52.002Z,16.63
2022-12-04T17:54:23.459Z,15.20
2022-12-04T17:56:57.989Z,15.68
2022-12-04T17:59:29.436Z,17.42
2022-12-04T18:02:00.557Z,15.88
2022-12-04T18:04:31.783Z,17.83
2022-12-04T18:07:06.687Z,18.70
2022-12-04T18:09:41.363Z,15.77
2022-12-04T18:12:12.694Z,16.77
2022-12-04T18:14:44.354Z,16.25
2022-12-04T18:17:18.034Z,16.05
2022-12-04T18:19:50.151Z,16.65
2022-12-04T18:22:25.965Z,16.65
2022-12-04T18:24:59.689Z,14.85
2022-12-04T18:27:31.168Z,16.35
2022-12-04T18:30:02.931Z,14.45
2022-12-04T18:32:34.656Z,14.95
2022-12-04T18:35:05.950Z,15.38
2022-12-04T18:37:39.989Z,19.83
2022-12-04T18:40:12.943Z,15.52
2022-12-04T18:42:44.600Z,14.93
2022-12-04T18:45:15.679Z,15.23
2022-12-04T18:47:47.334Z,15.32
2022-12-04T18:50:19.710Z,16.27
2022-12-04T18:53:00.001Z,18.63
2022-12-04T18:55:32.950Z,19.92
2022-12-04T18:58:04.722Z,20.13
2022-12-04T19:00:36.557Z,17.88
2022-12-04T19:03:09.405Z,19.50
2022-12-04T19:05:40.931Z,20.90
2022-12-04T19:08:15.214Z,20.13
2022-12-04T19:10:47.024Z,18.83
2022-12-04T19:13:18.686Z,18.83
2022-12-04T19:15:50.159Z,18.98
2022-12-04T19:18:22.080Z,20.20
2022-12-04T19:20:54.734Z,19.50
2022-12-04T19:23:29.222Z,21.20
2022-12-04T19:26:01.447Z,19.58
2022-12-04T19:28:33.202Z,20.13
2022-12-04T19:31:04.753Z,20.13
2022-12-04T19:33:37.776Z,18.13
2022-12-04T19:36:10.437Z,19.25
2022-12-04T19:38:45.290Z,17.27
2022-12-04T19:41:18.315Z,21.73
2022-12-04T19:43:52.109Z,20.08
2022-12-04T19:46:27.253Z,19.52
2022-12-04T19:49:02.483Z,17.80
2022-12-04T19:51:36.973Z,21.77
2022-12-04T19:54:14.468Z,24.83
2022-12-04T19:56:51.265Z,19.88
2022-12-04T19:59:23.370Z,19.80
2022-12-04T20:01:55.202Z,18.98
2022-12-04T20:04:27.396Z,20.70
2022-12-04T20:07:00.195Z,19.20
2022-12-04T20:09:34.842Z,19.70
2022-12-04T20:12:06.651Z,19.95
2022-12-04T20:14:37.678Z,21.27
2022-12-04T20:17:09.962Z,20.55
2022-12-04T20:19:42.234Z,20.02
2022-12-04T20:22:13.893Z,19.02
2022-12-04T20:24:47.621Z,20.65
2022-12-04T20:27:19.372Z,19.17
2022-12-04T20:29:50.497Z,17.92
2022-12-04T20:32:22.744Z,20.35
2022-12-04T20:34:54.464Z,20.23
2022-12-04T20:37:27.672Z,19.63
2022-12-04T20:40:02.983Z,19.55
2022-12-04T20:42:34.360Z,18.92
2022-12-04T20:45:06.195Z,19.45
2022-12-04T20:47:40.169Z,17.40
2022-12-04T20:50:12.091Z,19.00
2022-12-04T20:52:43.670Z,19.25
2022-12-04T20:55:17.584Z,18.67
2022-12-04T20:57:48.919Z,18.42
2022-12-04T21:00:21.815Z,18.13
2022-12-04T21:02:53.397Z,19.27
2022-12-04T21:05:24.629Z,18.48
2022-12-04T21:07:56.202Z,19.02
2022-12-04T21:10:31.212Z,18.00
2022-12-04T21:13:14.639Z,19.05
2022-12-04T21:15:57.818Z,18.65
2022-12-04T21:18:28.878Z,18.40
2022-12-04T21:20:59.992Z,18.38
2022-12-04T21:23:31.712Z,18.67
2022-12-04T21:26:06.640Z,19.33
2022-12-04T21:28:37.934Z,18.17
2022-12-04T21:31:10.427Z,17.83
2022-12-04T21:33:43.011Z,18.60
2022-12-04T21:36:14.902Z,18.92
2022-12-04T21:38:47.460Z,17.88
2022-12-04T21:41:34.184Z,17.45
2022-12-04T21:44:09.095Z,17.73
2022-12-04T21:46:42.064Z,20.13
2022-12-04T21:49:14.093Z,19.75
2022-12-04T21:51:57.338Z,19.70
2022-12-04T21:54:30.467Z,20.02
2022-12-04T21:57:05.518Z,20.52
2022-12-04T21:59:37.106Z,21.63
2022-12-04T22:02:08.561Z,19.33
2022-12-04T22:04:40.229Z,17.98
2022-12-04T22:07:12.104Z,19.05
2022-12-04T22:09:43.276Z,20.05
2022-12-04T22:12:48.075Z,18.05
2022-12-04T22:15:10.701Z,20.27
2022-12-04T22:17:41.997Z,20.00
2022-12-04T22:20:14.147Z,19.60
2022-12-04T22:22:45.239Z,20.00
2022-12-04T22:25:17.392Z,18.30
2022-12-04T22:27:51.550Z,21.13
2022-12-04T22:30:23.207Z,19.48
2022-12-04T22:32:55.804Z,20.92
2022-12-04T22:35:27.300Z,19.55
2022-12-04T22:37:58.701Z,20.08
2022-12-04T22:40:30.072Z,19.58
2022-12-04T22:43:04.064Z,21.40
2022-12-04T22:45:34.951Z,21.00
2022-12-04T22:48:06.083Z,21.02
2022-12-04T22:50:37.346Z,19.80
2022-12-04T22:53:09.091Z,20.75
2022-12-04T22:55:39.907Z,19.02
2022-12-04T22:58:13.608Z,21.90
2022-12-04T23:00:44.880Z,21.10
2022-12-04T23:03:15.847Z,20.25
2022-12-04T23:05:47.013Z,21.27
2022-12-04T23:08:17.853Z,19.67
2022-12-04T23:10:49.342Z,20.45
2022-12-04T23:13:23.133Z,20.00
2022-12-04T23:15:54.011Z,20.52
2022-12-04T23:18:24.915Z,21.75
2022-12-04T23:20:55.966Z,23.30
2022-12-04T23:23:26.813Z,22.42
2022-12-04T23:25:57.667Z,21.90
2022-12-04T23:28:31.226Z,21.73
2022-12-04T23:31:02.468Z,23.40
2022-12-04T23:33:33.918Z,22.45
2022-12-04T23:36:07.207Z,21.85
2022-12-04T23:38:39.200Z,22.33
2022-12-04T23:41:15.512Z,23.05
2022-12-04T23:43:50.335Z,23.80
2022-12-04T23:46:27.636Z,23.02
2022-12-04T23:48:58.995Z,22.73
2022-12-04T23:51:30.390Z,26.05
2022-12-04T23:54:01.219Z,22.42
2022-12-04T23:56:32.810Z,23.80
2022-12-04T23:59:07.013Z,24.55
